sensor_id;sensor_type;location;lat;lon;timestamp;pressure;altitude;pressure_sealevel;temperature
11926;BMP180;6022;48.768;18.608;2023-02-15T00:00:09;99996.41;;;0.72
11926;BMP180;6022;48.768;18.608;2023-02-15T00:02:39;100000.56;;;0.75
11926;BMP180;6022;48.768;18.608;2023-02-15T00:05:08;99998.06;;;0.64
11926;BMP180;6022;48.768;18.608;2023-02-15T00:07:35;99994.72;;;0.68
11926;BMP180;6022;48.768;18.608;2023-02-15T00:10:06;99998.88;;;0.63
11926;BMP180;6022;48.768;18.608;2023-02-15T00:12:34;99998.88;;;0.63
11926;BMP180;6022;48.768;18.608;2023-02-15T00:15:04;99997.22;;;0.63
11926;BMP180;6022;48.768;18.608;2023-02-15T00:17:31;99993.88;;;0.61
11926;BMP180;6022;48.768;18.608;2023-02-15T00:19:58;99993.06;;;0.64
11926;BMP180;6022;48.768;18.608;2023-02-15T00:22:26;99993.06;;;0.67
11926;BMP180;6022;48.768;18.608;2023-02-15T00:24:55;99988.91;;;0.66
11926;BMP180;6022;48.768;18.608;2023-02-15T00:27:25;100003.88;;;0.69
11926;BMP180;6022;48.768;18.608;2023-02-15T00:29:52;99998.06;;;0.62
11926;BMP180;6022;48.768;18.608;2023-02-15T00:32:19;100002.19;;;0.56
11926;BMP180;6022;48.768;18.608;2023-02-15T00:34:51;99997.22;;;0.57
11926;BMP180;6022;48.768;18.608;2023-02-15T00:37:18;99990.56;;;0.59
11926;BMP180;6022;48.768;18.608;2023-02-15T00:39:45;99985.56;;;0.47
11926;BMP180;6022;48.768;18.608;2023-02-15T00:42:12;99986.41;;;0.51
11926;BMP180;6022;48.768;18.608;2023-02-15T00:44:40;99988.06;;;0.55
11926;BMP180;6022;48.768;18.608;2023-02-15T00:47:08;99986.38;;;0.42
11926;BMP180;6022;48.768;18.608;2023-02-15T00:49:35;99977.25;;;0.45
11926;BMP180;6022;48.768;18.608;2023-02-15T00:52:21;99988.88;;;0.40
11926;BMP180;6022;48.768;18.608;2023-02-15T00:54:48;99980.56;;;0.41
11926;BMP180;6022;48.768;18.608;2023-02-15T00:57:15;99984.72;;;0.44
11926;BMP180;6022;48.768;18.608;2023-02-15T00:59:43;99980.53;;;0.43
11926;BMP180;6022;48.768;18.608;2023-02-15T01:02:10;99985.56;;;0.46
11926;BMP180;6022;48.768;18.608;2023-02-15T01:04:38;99988.06;;;0.46
11926;BMP180;6022;48.768;18.608;2023-02-15T01:07:06;99983.91;;;0.43
11926;BMP180;6022;48.768;18.608;2023-02-15T01:09:33;99984.69;;;0.41
11926;BMP180;6022;48.768;18.608;2023-02-15T01:12:00;99983.06;;;0.40
11926;BMP180;6022;48.768;18.608;2023-02-15T01:14:28;99986.38;;;0.36
11926;BMP180;6022;48.768;18.608;2023-02-15T01:16:55;99984.69;;;0.26
11926;BMP180;6022;48.768;18.608;2023-02-15T01:19:24;99982.22;;;0.31
11926;BMP180;6022;48.768;18.608;2023-02-15T01:21:51;99981.38;;;0.33
11926;BMP180;6022;48.768;18.608;2023-02-15T01:24:21;99982.19;;;0.20
11926;BMP180;6022;48.768;18.608;2023-02-15T01:26:48;99975.53;;;0.13
11926;BMP180;6022;48.768;18.608;2023-02-15T01:29:15;99971.34;;;0.12
11926;BMP180;6022;48.768;18.608;2023-02-15T01:31:42;99974.69;;;0.08
11926;BMP180;6022;48.768;18.608;2023-02-15T01:34:10;99973.84;;;0.12
11926;BMP180;6022;48.768;18.608;2023-02-15T01:36:37;99977.16;;;0.13
11926;BMP180;6022;48.768;18.608;2023-02-15T01:39:05;99975.50;;;0.06
11926;BMP180;6022;48.768;18.608;2023-02-15T01:41:34;99975.47;;;0.01
11926;BMP180;6022;48.768;18.608;2023-02-15T01:44:03;99969.66;;;-0.03
11926;BMP180;6022;48.768;18.608;2023-02-15T01:46:40;99972.16;;;-0.05
11926;BMP180;6022;48.768;18.608;2023-02-15T01:49:18;99972.13;;;-0.11
11926;BMP180;6022;48.768;18.608;2023-02-15T01:51:48;99973.78;;;-0.11
11926;BMP180;6022;48.768;18.608;2023-02-15T01:54:32;99963.78;;;-0.20
11926;BMP180;6022;48.768;18.608;2023-02-15T01:57:12;99963.78;;;-0.23
11926;BMP180;6022;48.768;18.608;2023-02-15T01:59:44;99943.81;;;-0.31
11926;BMP180;6022;48.768;18.608;2023-02-15T02:02:15;99956.25;;;-0.32
11926;BMP180;6022;48.768;18.608;2023-02-15T02:04:51;99954.59;;;-0.33
11926;BMP180;6022;48.768;18.608;2023-02-15T02:07:25;99961.22;;;-0.41
11926;BMP180;6022;48.768;18.608;2023-02-15T02:09:56;99962.03;;;-0.48
11926;BMP180;6022;48.768;18.608;2023-02-15T02:12:24;99965.34;;;-0.47
11926;BMP180;6022;48.768;18.608;2023-02-15T02:14:55;99964.50;;;-0.48
11926;BMP180;6022;48.768;18.608;2023-02-15T02:18:03;99948.72;;;-0.51
11926;BMP180;6022;48.768;18.608;2023-02-15T02:24:59;99941.22;;;-0.56
11926;BMP180;6022;48.768;18.608;2023-02-15T02:47:47;99942.81;;;-0.73
11926;BMP180;6022;48.768;18.608;2023-02-15T02:50:23;99946.94;;;-0.76
11926;BMP180;6022;48.768;18.608;2023-02-15T02:52:54;99946.06;;;-0.82
11926;BMP180;6022;48.768;18.608;2023-02-15T02:55:34;99939.38;;;-0.86
11926;BMP180;6022;48.768;18.608;2023-02-15T03:01:02;99941.91;;;-0.88
11926;BMP180;6022;48.768;18.608;2023-02-15T03:03:44;99940.22;;;-0.87
11926;BMP180;6022;48.768;18.608;2023-02-15T03:06:31;99943.56;;;-0.85
11926;BMP180;6022;48.768;18.608;2023-02-15T03:09:20;99941.84;;;-0.95
11926;BMP180;6022;48.768;18.608;2023-02-15T03:11:50;99948.47;;;-0.94
11926;BMP180;6022;48.768;18.608;2023-02-15T03:14:19;99950.16;;;-0.93
11926;BMP180;6022;48.768;18.608;2023-02-15T03:19:39;99945.16;;;-0.99
11926;BMP180;6022;48.768;18.608;2023-02-15T03:22:26;99954.28;;;-0.98
11926;BMP180;6022;48.768;18.608;2023-02-15T03:25:26;99955.94;;;-1.00
11926;BMP180;6022;48.768;18.608;2023-02-15T03:28:09;99959.25;;;-1.03
11926;BMP180;6022;48.768;18.608;2023-02-15T03:30:45;99958.41;;;-1.05
11926;BMP180;6022;48.768;18.608;2023-02-15T03:33:26;99953.38;;;-1.08
11926;BMP180;6022;48.768;18.608;2023-02-15T03:36:20;99948.38;;;-1.09
11926;BMP180;6022;48.768;18.608;2023-02-15T03:42:07;99947.53;;;-1.11
11926;BMP180;6022;48.768;18.608;2023-02-15T03:47:27;99955.00;;;-1.13
11926;BMP180;6022;48.768;18.608;2023-02-15T03:50:17;99949.97;;;-1.21
11926;BMP180;6022;48.768;18.608;2023-02-15T03:53:09;99939.97;;;-1.27
11926;BMP180;6022;48.768;18.608;2023-02-15T03:55:41;99946.56;;;-1.32
11926;BMP180;6022;48.768;18.608;2023-02-15T03:58:11;99951.53;;;-1.35
11926;BMP180;6022;48.768;18.608;2023-02-15T04:01:11;99955.63;;;-1.39
11926;BMP180;6022;48.768;18.608;2023-02-15T04:04:18;99950.63;;;-1.43
11926;BMP180;6022;48.768;18.608;2023-02-15T04:06:46;99948.13;;;-1.45
11926;BMP180;6022;48.768;18.608;2023-02-15T04:09:14;99956.38;;;-1.53
11926;BMP180;6022;48.768;18.608;2023-02-15T04:12:00;99958.06;;;-1.49
11926;BMP180;6022;48.768;18.608;2023-02-15T04:14:28;99960.53;;;-1.51
11926;BMP180;6022;48.768;18.608;2023-02-15T04:17:16;99960.53;;;-1.51
11926;BMP180;6022;48.768;18.608;2023-02-15T04:19:43;99968.81;;;-1.51
11926;BMP180;6022;48.768;18.608;2023-02-15T04:22:28;99956.31;;;-1.56
11926;BMP180;6022;48.768;18.608;2023-02-15T04:25:14;99959.66;;;-1.54
11926;BMP180;6022;48.768;18.608;2023-02-15T04:27:50;99965.47;;;-1.53
11926;BMP180;6022;48.768;18.608;2023-02-15T04:30:22;99964.66;;;-1.52
11926;BMP180;6022;48.768;18.608;2023-02-15T04:32:50;99962.16;;;-1.52
11926;BMP180;6022;48.768;18.608;2023-02-15T04:35:18;99966.31;;;-1.53
11926;BMP180;6022;48.768;18.608;2023-02-15T04:37:46;99968.81;;;-1.51
11926;BMP180;6022;48.768;18.608;2023-02-15T04:40:15;99966.31;;;-1.54
11926;BMP180;6022;48.768;18.608;2023-02-15T04:42:50;99957.94;;;-1.62
11926;BMP180;6022;48.768;18.608;2023-02-15T04:45:17;99960.41;;;-1.65
11926;BMP180;6022;48.768;18.608;2023-02-15T04:47:45;99964.56;;;-1.64
11926;BMP180;6022;48.768;18.608;2023-02-15T04:50:12;99960.38;;;-1.70
11926;BMP180;6022;48.768;18.608;2023-02-15T04:52:39;99958.69;;;-1.69
11926;BMP180;6022;48.768;18.608;2023-02-15T04:55:07;99962.78;;;-1.77
11926;BMP180;6022;48.768;18.608;2023-02-15T04:57:41;99960.28;;;-1.77
11926;BMP180;6022;48.768;18.608;2023-02-15T05:00:16;99957.81;;;-1.77
11926;BMP180;6022;48.768;18.608;2023-02-15T05:02:50;99959.41;;;-1.82
11926;BMP180;6022;48.768;18.608;2023-02-15T05:05:17;99955.22;;;-1.89
11926;BMP180;6022;48.768;18.608;2023-02-15T05:07:45;99959.31;;;-1.92
11926;BMP180;6022;48.768;18.608;2023-02-15T05:10:12;99961.75;;;-1.95
11926;BMP180;6022;48.768;18.608;2023-02-15T05:12:39;99955.97;;;-1.96
11926;BMP180;6022;48.768;18.608;2023-02-15T05:15:07;99955.19;;;-1.92
11926;BMP180;6022;48.768;18.608;2023-02-15T05:17:36;99950.22;;;-1.90
11926;BMP180;6022;48.768;18.608;2023-02-15T05:20:05;99955.22;;;-1.89
11926;BMP180;6022;48.768;18.608;2023-02-15T05:22:32;99951.06;;;-1.88
11926;BMP180;6022;48.768;18.608;2023-02-15T05:25:09;99950.19;;;-1.92
11926;BMP180;6022;48.768;18.608;2023-02-15T05:27:55;99951.75;;;-2.03
11926;BMP180;6022;48.768;18.608;2023-02-15T05:30:42;99954.19;;;-2.04
11926;BMP180;6022;48.768;18.608;2023-02-15T05:33:10;99957.50;;;-2.07
11926;BMP180;6022;48.768;18.608;2023-02-15T05:35:37;99957.53;;;-2.05
11926;BMP180;6022;48.768;18.608;2023-02-15T05:38:04;99957.47;;;-2.10
11926;BMP180;6022;48.768;18.608;2023-02-15T05:40:31;99964.91;;;-2.10
11926;BMP180;6022;48.768;18.608;2023-02-15T05:43:00;99969.03;;;-2.12
11926;BMP180;6022;48.768;18.608;2023-02-15T05:45:27;99966.56;;;-2.10
11926;BMP180;6022;48.768;18.608;2023-02-15T05:47:59;99964.06;;;-2.12
11926;BMP180;6022;48.768;18.608;2023-02-15T05:50:34;99969.88;;;-2.10
11926;BMP180;6022;48.768;18.608;2023-02-15T05:53:01;99972.38;;;-2.10
11926;BMP180;6022;48.768;18.608;2023-02-15T05:55:32;99979.88;;;-2.07
11926;BMP180;6022;48.768;18.608;2023-02-15T05:58:00;99975.78;;;-2.03
11926;BMP180;6022;48.768;18.608;2023-02-15T06:00:27;99976.66;;;-2.00
11926;BMP180;6022;48.768;18.608;2023-02-15T06:02:55;99979.91;;;-2.04
11926;BMP180;6022;48.768;18.608;2023-02-15T06:05:23;99985.72;;;-2.00
11926;BMP180;6022;48.768;18.608;2023-02-15T06:07:51;99999.06;;;-1.95
11926;BMP180;6022;48.768;18.608;2023-02-15T06:10:19;99999.06;;;-1.94
11926;BMP180;6022;48.768;18.608;2023-02-15T06:12:46;99999.13;;;-1.89
11926;BMP180;6022;48.768;18.608;2023-02-15T06:15:14;99995.00;;;-1.86
11926;BMP180;6022;48.768;18.608;2023-02-15T06:17:42;100001.63;;;-1.88
11926;BMP180;6022;48.768;18.608;2023-02-15T06:20:10;100002.47;;;-1.86
11926;BMP180;6022;48.768;18.608;2023-02-15T06:22:41;100011.72;;;-1.75
11926;BMP180;6022;48.768;18.608;2023-02-15T06:25:08;100006.84;;;-1.64
11926;BMP180;6022;48.768;18.608;2023-02-15T06:27:41;100009.41;;;-1.55
11926;BMP180;6022;48.768;18.608;2023-02-15T06:30:11;100014.50;;;-1.45
11926;BMP180;6022;48.768;18.608;2023-02-15T06:32:39;100021.19;;;-1.37
11926;BMP180;6022;48.768;18.608;2023-02-15T06:35:07;100014.63;;;-1.27
11926;BMP180;6022;48.768;18.608;2023-02-15T06:37:40;100016.28;;;-1.29
11926;BMP180;6022;48.768;18.608;2023-02-15T06:40:09;100011.38;;;-1.23
11926;BMP180;6022;48.768;18.608;2023-02-15T06:42:36;100023.03;;;-1.15
11926;BMP180;6022;48.768;18.608;2023-02-15T06:45:10;100015.66;;;-1.03
11926;BMP180;6022;48.768;18.608;2023-02-15T06:47:37;100016.56;;;-0.97
11926;BMP180;6022;48.768;18.608;2023-02-15T06:50:32;100017.44;;;-0.89
11926;BMP180;6022;48.768;18.608;2023-02-15T06:53:35;100015.00;;;-0.80
11926;BMP180;6022;48.768;18.608;2023-02-15T06:56:23;100006.69;;;-0.79
11926;BMP180;6022;48.768;18.608;2023-02-15T06:59:08;100015.09;;;-0.62
11926;BMP180;6022;48.768;18.608;2023-02-15T07:01:42;100010.25;;;-0.34
11926;BMP180;6022;48.768;18.608;2023-02-15T07:04:14;100016.19;;;-0.14
11926;BMP180;6022;48.768;18.608;2023-02-15T07:06:44;100011.28;;;0.09
11926;BMP180;6022;48.768;18.608;2023-02-15T07:09:13;100002.19;;;0.39
11926;BMP180;6022;48.768;18.608;2023-02-15T07:11:41;99999.72;;;0.53
11926;BMP180;6022;48.768;18.608;2023-02-15T07:14:27;99996.38;;;0.51
11926;BMP180;6022;48.768;18.608;2023-02-15T07:17:06;99995.56;;;0.81
11926;BMP180;6022;48.768;18.608;2023-02-15T07:19:56;99993.03;;;1.07
11926;BMP180;6022;48.768;18.608;2023-02-15T07:22:29;99991.34;;;1.19
11926;BMP180;6022;48.768;18.608;2023-02-15T07:25:24;99984.69;;;1.21
11926;BMP180;6022;48.768;18.608;2023-02-15T07:28:15;99984.69;;;1.21
11926;BMP180;6022;48.768;18.608;2023-02-15T07:30:49;99984.72;;;1.11
11926;BMP180;6022;48.768;18.608;2023-02-15T07:33:27;99992.19;;;1.12
11926;BMP180;6022;48.768;18.608;2023-02-15T07:36:03;99987.19;;;1.06
11926;BMP180;6022;48.768;18.608;2023-02-15T07:38:41;99984.72;;;1.03
11926;BMP180;6022;48.768;18.608;2023-02-15T07:41:19;99977.22;;;1.08
11926;BMP180;6022;48.768;18.608;2023-02-15T07:43:50;99980.56;;;1.05
11926;BMP180;6022;48.768;18.608;2023-02-15T07:46:21;99983.06;;;1.05
11926;BMP180;6022;48.768;18.608;2023-02-15T07:48:52;99977.19;;;1.12
11926;BMP180;6022;48.768;18.608;2023-02-15T07:51:22;99977.22;;;1.16
11926;BMP180;6022;48.768;18.608;2023-02-15T07:53:50;99970.50;;;1.23
11926;BMP180;6022;48.768;18.608;2023-02-15T07:56:19;99970.47;;;1.41
11926;BMP180;6022;48.768;18.608;2023-02-15T07:58:48;99977.78;;;1.85
11926;BMP180;6022;48.768;18.608;2023-02-15T08:01:46;99979.25;;;2.24
11926;BMP180;6022;48.768;18.608;2023-02-15T08:04:25;99973.88;;;2.75
11926;BMP180;6022;48.768;18.608;2023-02-15T08:06:56;99965.06;;;3.22
11926;BMP180;6022;48.768;18.608;2023-02-15T08:09:39;99965.72;;;3.43
11926;BMP180;6022;48.768;18.608;2023-02-15T08:12:07;99948.25;;;4.00
11926;BMP180;6022;48.768;18.608;2023-02-15T08:14:34;99947.53;;;3.93
11926;BMP180;6022;48.768;18.608;2023-02-15T08:17:02;99938.59;;;4.33
11926;BMP180;6022;48.768;18.608;2023-02-15T08:19:32;99936.91;;;4.83
11926;BMP180;6022;48.768;18.608;2023-02-15T08:22:11;99942.31;;;5.10
11926;BMP180;6022;48.768;18.608;2023-02-15T08:24:41;99948.16;;;5.55
11926;BMP180;6022;48.768;18.608;2023-02-15T08:27:45;99925.25;;;6.07
11926;BMP180;6022;48.768;18.608;2023-02-15T08:31:08;99933.59;;;6.09
11926;BMP180;6022;48.768;18.608;2023-02-15T08:33:38;99926.31;;;6.34
11926;BMP180;6022;48.768;18.608;2023-02-15T08:36:11;99919.31;;;6.79
11926;BMP180;6022;48.768;18.608;2023-02-15T08:38:43;99918.63;;;6.73
11926;BMP180;6022;48.768;18.608;2023-02-15T08:41:24;99918.50;;;6.77
11926;BMP180;6022;48.768;18.608;2023-02-15T08:43:55;99915.94;;;6.80
11926;BMP180;6022;48.768;18.608;2023-02-15T08:46:26;99910.47;;;6.96
11926;BMP180;6022;48.768;18.608;2023-02-15T08:48:54;99906.31;;;7.25
11926;BMP180;6022;48.768;18.608;2023-02-15T08:51:30;99908.53;;;7.66
11926;BMP180;6022;48.768;18.608;2023-02-15T08:54:12;99903.41;;;7.96
11926;BMP180;6022;48.768;18.608;2023-02-15T08:57:25;99902.56;;;8.24
11926;BMP180;6022;48.768;18.608;2023-02-15T09:00:23;99903.28;;;8.53
11926;BMP180;6022;48.768;18.608;2023-02-15T09:04:04;99892.09;;;8.34
11926;BMP180;6022;48.768;18.608;2023-02-15T09:06:40;99888.09;;;8.79
11926;BMP180;6022;48.768;18.608;2023-02-15T09:09:55;99882.34;;;9.22
11926;BMP180;6022;48.768;18.608;2023-02-15T09:12:43;99891.50;;;9.26
11926;BMP180;6022;48.768;18.608;2023-02-15T09:15:14;99886.19;;;9.09
11926;BMP180;6022;48.768;18.608;2023-02-15T09:17:42;99895.28;;;8.67
11926;BMP180;6022;48.768;18.608;2023-02-15T09:20:10;99894.47;;;9.14
11926;BMP180;6022;48.768;18.608;2023-02-15T09:22:38;99901.94;;;9.64
11926;BMP180;6022;48.768;18.608;2023-02-15T09:25:06;99889.50;;;10.02
11926;BMP180;6022;48.768;18.608;2023-02-15T09:27:33;99895.13;;;10.31
11926;BMP180;6022;48.768;18.608;2023-02-15T09:30:04;99890.28;;;9.81
11926;BMP180;6022;48.768;18.608;2023-02-15T09:32:32;99886.84;;;9.61
11926;BMP180;6022;48.768;18.608;2023-02-15T09:35:00;99880.06;;;9.62
11926;BMP180;6022;48.768;18.608;2023-02-15T09:37:27;99889.53;;;9.57
11926;BMP180;6022;48.768;18.608;2023-02-15T09:39:57;99883.72;;;9.55
11926;BMP180;6022;48.768;18.608;2023-02-15T09:48:41;99886.31;;;9.75
11926;BMP180;6022;48.768;18.608;2023-02-15T09:52:19;99890.88;;;9.44
11926;BMP180;6022;48.768;18.608;2023-02-15T09:54:51;99885.56;;;9.95
11926;BMP180;6022;48.768;18.608;2023-02-15T10:19:57;99868.47;;;10.62
11926;BMP180;6022;48.768;18.608;2023-02-15T10:45:49;99845.75;;;11.92
11926;BMP180;6022;48.768;18.608;2023-02-15T10:52:12;99844.66;;;12.14
11926;BMP180;6022;48.768;18.608;2023-02-15T10:54:55;99848.06;;;12.31
11926;BMP180;6022;48.768;18.608;2023-02-15T11:00:26;99846.22;;;12.16
11926;BMP180;6022;48.768;18.608;2023-02-15T11:03:22;99839.56;;;12.49
11926;BMP180;6022;48.768;18.608;2023-02-15T11:06:16;99835.50;;;12.79
11926;BMP180;6022;48.768;18.608;2023-02-15T11:08:50;99834.03;;;12.91
11926;BMP180;6022;48.768;18.608;2023-02-15T11:11:35;99832.88;;;12.80
11926;BMP180;6022;48.768;18.608;2023-02-15T11:17:10;99822.84;;;12.94
11926;BMP180;6022;48.768;18.608;2023-02-15T11:19:54;99818.09;;;13.03
11926;BMP180;6022;48.768;18.608;2023-02-15T11:22:22;99825.56;;;13.06
11926;BMP180;6022;48.768;18.608;2023-02-15T11:24:51;99816.03;;;13.42
11926;BMP180;6022;48.768;18.608;2023-02-15T11:27:31;99822.91;;;13.24
11926;BMP180;6022;48.768;18.608;2023-02-15T11:30:21;99812.72;;;13.40
11926;BMP180;6022;48.768;18.608;2023-02-15T11:32:55;99813.66;;;13.39
11926;BMP180;6022;48.768;18.608;2023-02-15T11:35:35;99808.47;;;13.56
11926;BMP180;6022;48.768;18.608;2023-02-15T11:38:13;99814.88;;;13.47
11926;BMP180;6022;48.768;18.608;2023-02-15T11:40:52;99805.75;;;13.58
11926;BMP180;6022;48.768;18.608;2023-02-15T11:46:27;99802.31;;;13.59
11926;BMP180;6022;48.768;18.608;2023-02-15T11:48:56;99791.34;;;13.88
11926;BMP180;6022;48.768;18.608;2023-02-15T11:51:24;99782.16;;;13.70
11926;BMP180;6022;48.768;18.608;2023-02-15T11:53:54;99791.38;;;13.58
11926;BMP180;6022;48.768;18.608;2023-02-15T11:56:25;99781.78;;;13.92
11926;BMP180;6022;48.768;18.608;2023-02-15T11:59:01;99789.53;;;14.21
11926;BMP180;6022;48.768;18.608;2023-02-15T12:01:41;99784.59;;;13.87
11926;BMP180;6022;48.768;18.608;2023-02-15T12:05:05;99775.28;;;14.01
11926;BMP180;6022;48.768;18.608;2023-02-15T12:07:46;99771.59;;;14.07
11926;BMP180;6022;48.768;18.608;2023-02-15T12:10:23;99776.34;;;13.97
11926;BMP180;6022;48.768;18.608;2023-02-15T12:13:15;99772.81;;;14.00
11926;BMP180;6022;48.768;18.608;2023-02-15T12:15:51;99769.94;;;14.06
11926;BMP180;6022;48.768;18.608;2023-02-15T12:21:14;99763.28;;;14.46
11926;BMP180;6022;48.768;18.608;2023-02-15T12:23:50;99764.16;;;14.18
11926;BMP180;6022;48.768;18.608;2023-02-15T12:26:34;99757.28;;;14.04
11926;BMP180;6022;48.768;18.608;2023-02-15T12:29:16;99761.44;;;14.05
11926;BMP180;6022;48.768;18.608;2023-02-15T12:31:47;99743.16;;;14.13
11926;BMP180;6022;48.768;18.608;2023-02-15T12:37:23;99746.66;;;13.97
11926;BMP180;6022;48.768;18.608;2023-02-15T12:40:36;99749.34;;;14.09
11926;BMP180;6022;48.768;18.608;2023-02-15T12:46:26;99748.03;;;13.87
11926;BMP180;6022;48.768;18.608;2023-02-15T12:49:34;99740.88;;;14.08
11926;BMP180;6022;48.768;18.608;2023-02-15T12:52:23;99738.34;;;13.93
11926;BMP180;6022;48.768;18.608;2023-02-15T12:54:51;99739.88;;;13.66
11926;BMP180;6022;48.768;18.608;2023-02-15T12:57:25;99738.63;;;13.58
11926;BMP180;6022;48.768;18.608;2023-02-15T13:03:04;99722.44;;;13.44
11926;BMP180;6022;48.768;18.608;2023-02-15T13:05:48;99723.19;;;13.46
11926;BMP180;6022;48.768;18.608;2023-02-15T13:08:22;99715.97;;;13.38
11926;BMP180;6022;48.768;18.608;2023-02-15T13:11:10;99710.59;;;13.58
11926;BMP180;6022;48.768;18.608;2023-02-15T13:14:03;99709.78;;;13.58
11926;BMP180;6022;48.768;18.608;2023-02-15T13:16:47;99700.56;;;13.40
11926;BMP180;6022;48.768;18.608;2023-02-15T13:19:37;99696.63;;;13.50
11926;BMP180;6022;48.768;18.608;2023-02-15T13:22:20;99696.63;;;13.50
11926;BMP180;6022;48.768;18.608;2023-02-15T13:24:59;99690.78;;;13.48
11926;BMP180;6022;48.768;18.608;2023-02-15T13:27:38;99696.53;;;13.36
11926;BMP180;6022;48.768;18.608;2023-02-15T13:30:38;99696.63;;;13.34
11926;BMP180;6022;48.768;18.608;2023-02-15T13:33:27;99698.94;;;13.39
11926;BMP180;6022;48.768;18.608;2023-02-15T13:36:34;99694.25;;;13.16
11926;BMP180;6022;48.768;18.608;2023-02-15T13:42:31;99685.28;;;13.09
11926;BMP180;6022;48.768;18.608;2023-02-15T13:45:31;99688.91;;;13.05
11926;BMP180;6022;48.768;18.608;2023-02-15T13:51:43;99694.88;;;13.04
11926;BMP180;6022;48.768;18.608;2023-02-15T14:10:05;99679.25;;;12.47
11926;BMP180;6022;48.768;18.608;2023-02-15T14:16:03;99689.06;;;12.38
11926;BMP180;6022;48.768;18.608;2023-02-15T14:27:23;99683.44;;;11.83
11926;BMP180;6022;48.768;18.608;2023-02-15T14:42:05;99671.13;;;11.04
11926;BMP180;6022;48.768;18.608;2023-02-15T14:45:15;99678.34;;;10.94
11926;BMP180;6022;48.768;18.608;2023-02-15T14:48:49;99680.25;;;10.71
11926;BMP180;6022;48.768;18.608;2023-02-15T15:00:12;99676.72;;;10.18
11926;BMP180;6022;48.768;18.608;2023-02-15T15:03:47;99675.22;;;9.94
11926;BMP180;6022;48.768;18.608;2023-02-15T15:06:40;99674.97;;;9.78
11926;BMP180;6022;48.768;18.608;2023-02-15T15:09:40;99670.09;;;9.74
11926;BMP180;6022;48.768;18.608;2023-02-15T15:14:55;99671.41;;;9.63
11926;BMP180;6022;48.768;18.608;2023-02-15T15:18:05;99671.06;;;9.50
11926;BMP180;6022;48.768;18.608;2023-02-15T15:20:45;99674.84;;;9.41
11926;BMP180;6022;48.768;18.608;2023-02-15T15:23:45;99679.41;;;9.11
11926;BMP180;6022;48.768;18.608;2023-02-15T15:26:39;99672.66;;;8.89
11926;BMP180;6022;48.768;18.608;2023-02-15T15:37:46;99669.06;;;8.27
11926;BMP180;6022;48.768;18.608;2023-02-15T15:44:29;99674.19;;;7.99
11926;BMP180;6022;48.768;18.608;2023-02-15T15:50:15;99683.19;;;7.82
11926;BMP180;6022;48.768;18.608;2023-02-15T15:52:57;99683.09;;;7.59
11926;BMP180;6022;48.768;18.608;2023-02-15T15:55:30;99671.56;;;7.53
11926;BMP180;6022;48.768;18.608;2023-02-15T16:01:10;99681.31;;;7.63
11926;BMP180;6022;48.768;18.608;2023-02-15T16:03:53;99682.28;;;7.59
11926;BMP180;6022;48.768;18.608;2023-02-15T16:06:47;99686.41;;;7.36
11926;BMP180;6022;48.768;18.608;2023-02-15T16:10:04;99681.03;;;7.19
11926;BMP180;6022;48.768;18.608;2023-02-15T16:12:49;99690.91;;;7.26
11926;BMP180;6022;48.768;18.608;2023-02-15T16:15:23;99683.75;;;7.13
11926;BMP180;6022;48.768;18.608;2023-02-15T16:17:59;99694.16;;;7.03
11926;BMP180;6022;48.768;18.608;2023-02-15T16:21:03;99686.53;;;6.76
11926;BMP180;6022;48.768;18.608;2023-02-15T16:29:31;99702.34;;;6.52
11926;BMP180;6022;48.768;18.608;2023-02-15T16:32:25;99700.63;;;6.54
11926;BMP180;6022;48.768;18.608;2023-02-15T16:38:15;99695.34;;;6.33
11926;BMP180;6022;48.768;18.608;2023-02-15T16:41:03;99702.19;;;6.28
11926;BMP180;6022;48.768;18.608;2023-02-15T16:43:45;99699.91;;;6.19
11926;BMP180;6022;48.768;18.608;2023-02-15T16:46:33;99705.09;;;6.13
11926;BMP180;6022;48.768;18.608;2023-02-15T16:49:18;99707.25;;;5.95
11926;BMP180;6022;48.768;18.608;2023-02-15T16:52:10;99715.06;;;5.84
11926;BMP180;6022;48.768;18.608;2023-02-15T16:54:44;99718.78;;;5.68
11926;BMP180;6022;48.768;18.608;2023-02-15T16:57:20;99706.72;;;5.46
11926;BMP180;6022;48.768;18.608;2023-02-15T17:00:16;99722.53;;;5.51
11926;BMP180;6022;48.768;18.608;2023-02-15T17:03:12;99713.69;;;5.35
11926;BMP180;6022;48.768;18.608;2023-02-15T17:05:58;99709.78;;;5.23
11926;BMP180;6022;48.768;18.608;2023-02-15T17:08:44;99712.31;;;5.23
11926;BMP180;6022;48.768;18.608;2023-02-15T17:11:34;99720.66;;;5.25
11926;BMP180;6022;48.768;18.608;2023-02-15T17:17:11;99710.63;;;5.23
11926;BMP180;6022;48.768;18.608;2023-02-15T17:19:54;99714.06;;;5.19
11926;BMP180;6022;48.768;18.608;2023-02-15T17:22:58;99717.44;;;5.18
11926;BMP180;6022;48.768;18.608;2023-02-15T17:25:39;99713.63;;;5.01
11926;BMP180;6022;48.768;18.608;2023-02-15T17:28:23;99719.63;;;4.94
11926;BMP180;6022;48.768;18.608;2023-02-15T17:31:01;99717.88;;;4.97
11926;BMP180;6022;48.768;18.608;2023-02-15T17:33:54;99712.09;;;4.94
11926;BMP180;6022;48.768;18.608;2023-02-15T18:10:52;99717.69;;;4.24
11926;BMP180;6022;48.768;18.608;2023-02-15T18:14:20;99732.25;;;4.04
11926;BMP180;6022;48.768;18.608;2023-02-15T18:17:48;99727.19;;;3.58
11926;BMP180;6022;48.768;18.608;2023-02-15T18:23:45;99718.88;;;3.56
11926;BMP180;6022;48.768;18.608;2023-02-15T18:55:28;99724.63;;;3.05
11926;BMP180;6022;48.768;18.608;2023-02-15T18:58:03;99713.91;;;2.92
11926;BMP180;6022;48.768;18.608;2023-02-15T19:39:47;99720.50;;;2.31
11926;BMP180;6022;48.768;18.608;2023-02-15T20:03:59;99720.31;;;1.63
11926;BMP180;6022;48.768;18.608;2023-02-15T20:56:39;99718.13;;;1.17
11926;BMP180;6022;48.768;18.608;2023-02-15T20:59:28;99715.63;;;1.14
11926;BMP180;6022;48.768;18.608;2023-02-15T21:02:09;99714.00;;;1.10
11926;BMP180;6022;48.768;18.608;2023-02-15T21:04:41;99719.81;;;1.12
11926;BMP180;6022;48.768;18.608;2023-02-15T21:07:19;99717.34;;;1.09
11926;BMP180;6022;48.768;18.608;2023-02-15T21:10:06;99722.34;;;1.08
11926;BMP180;6022;48.768;18.608;2023-02-15T21:12:38;99718.19;;;1.08
11926;BMP180;6022;48.768;18.608;2023-02-15T21:15:34;99717.34;;;1.11
11926;BMP180;6022;48.768;18.608;2023-02-15T21:18:16;99717.34;;;1.06
11926;BMP180;6022;48.768;18.608;2023-02-15T21:20:47;99712.34;;;1.06
11926;BMP180;6022;48.768;18.608;2023-02-15T21:23:20;99712.34;;;1.05
11926;BMP180;6022;48.768;18.608;2023-02-15T21:25:49;99709.03;;;1.04
11926;BMP180;6022;48.768;18.608;2023-02-15T21:28:25;99704.94;;;0.94
11926;BMP180;6022;48.768;18.608;2023-02-15T21:30:55;99708.25;;;0.96
11926;BMP180;6022;48.768;18.608;2023-02-15T21:33:26;99698.25;;;0.96
11926;BMP180;6022;48.768;18.608;2023-02-15T21:35:56;99704.09;;;0.97